sensor_id;sensor_type;location;lat;lon;timestamp;temperature;humidity
54124;DHT22;55741;53.252;5.788;2024-01-07T00:02:16;0.50;99.90
54124;DHT22;55741;53.252;5.788;2024-01-07T00:04:44;0.50;99.90
54124;DHT22;55741;53.252;5.788;2024-01-07T00:07:09;0.60;99.90
54124;DHT22;55741;53.252;5.788;2024-01-07T00:09:35;0.60;99.90
54124;DHT22;55741;53.252;5.788;2024-01-07T00:12:01;0.50;99.90
54124;DHT22;55741;53.252;5.788;2024-01-07T00:14:28;0.70;99.90
54124;DHT22;55741;53.252;5.788;2024-01-07T00:16:54;0.60;99.90
54124;DHT22;55741;53.252;5.788;2024-01-07T00:19:19;0.60;99.90
54124;DHT22;55741;53.252;5.788;2024-01-07T00:21:45;0.60;99.90
54124;DHT22;55741;53.252;5.788;2024-01-07T00:24:11;0.60;99.90
54124;DHT22;55741;53.252;5.788;2024-01-07T00:26:37;0.60;99.90
54124;DHT22;55741;53.252;5.788;2024-01-07T00:29:03;0.60;99.90
54124;DHT22;55741;53.252;5.788;2024-01-07T00:31:29;0.60;99.90
54124;DHT22;55741;53.252;5.788;2024-01-07T00:33:55;0.60;99.90
54124;DHT22;55741;53.252;5.788;2024-01-07T00:36:21;0.60;99.90
54124;DHT22;55741;53.252;5.788;2024-01-07T00:38:47;0.60;99.90
54124;DHT22;55741;53.252;5.788;2024-01-07T00:41:13;0.60;99.90
54124;DHT22;55741;53.252;5.788;2024-01-07T00:43:40;0.60;99.90
54124;DHT22;55741;53.252;5.788;2024-01-07T00:46:06;0.60;99.90
54124;DHT22;55741;53.252;5.788;2024-01-07T00:48:33;0.60;99.90
54124;DHT22;55741;53.252;5.788;2024-01-07T00:50:58;0.60;99.90
54124;DHT22;55741;53.252;5.788;2024-01-07T00:53:24;0.60;99.90
54124;DHT22;55741;53.252;5.788;2024-01-07T00:55:50;0.60;99.90
54124;DHT22;55741;53.252;5.788;2024-01-07T00:58:16;0.60;99.90
54124;DHT22;55741;53.252;5.788;2024-01-07T01:01:02;0.50;99.90
54124;DHT22;55741;53.252;5.788;2024-01-07T01:03:29;0.60;99.90
54124;DHT22;55741;53.252;5.788;2024-01-07T01:05:55;0.50;99.90
54124;DHT22;55741;53.252;5.788;2024-01-07T01:08:41;0.50;99.90
54124;DHT22;55741;53.252;5.788;2024-01-07T01:11:09;0.50;99.90
54124;DHT22;55741;53.252;5.788;2024-01-07T01:13:35;0.40;99.90
54124;DHT22;55741;53.252;5.788;2024-01-07T01:16:01;0.40;99.90
54124;DHT22;55741;53.252;5.788;2024-01-07T01:18:27;0.40;99.90
54124;DHT22;55741;53.252;5.788;2024-01-07T01:20:53;0.40;99.90
54124;DHT22;55741;53.252;5.788;2024-01-07T01:23:21;0.30;99.90
54124;DHT22;55741;53.252;5.788;2024-01-07T01:25:47;0.40;99.90
54124;DHT22;55741;53.252;5.788;2024-01-07T01:28:13;0.50;99.90
54124;DHT22;55741;53.252;5.788;2024-01-07T01:30:38;0.40;99.90
54124;DHT22;55741;53.252;5.788;2024-01-07T01:33:05;0.30;99.90
54124;DHT22;55741;53.252;5.788;2024-01-07T01:35:31;0.40;99.90
54124;DHT22;55741;53.252;5.788;2024-01-07T01:37:56;0.50;99.90
54124;DHT22;55741;53.252;5.788;2024-01-07T01:40:42;0.30;99.90
54124;DHT22;55741;53.252;5.788;2024-01-07T01:43:08;0.30;99.90
54124;DHT22;55741;53.252;5.788;2024-01-07T01:45:36;0.40;99.90
54124;DHT22;55741;53.252;5.788;2024-01-07T01:48:02;0.50;99.90
54124;DHT22;55741;53.252;5.788;2024-01-07T01:50:28;0.40;99.90
54124;DHT22;55741;53.252;5.788;2024-01-07T01:52:54;0.40;99.90
54124;DHT22;55741;53.252;5.788;2024-01-07T01:55:21;0.40;99.90
54124;DHT22;55741;53.252;5.788;2024-01-07T01:57:47;0.30;99.90
54124;DHT22;55741;53.252;5.788;2024-01-07T02:00:14;0.30;99.90
54124;DHT22;55741;53.252;5.788;2024-01-07T02:02:40;0.30;99.90
54124;DHT22;55741;53.252;5.788;2024-01-07T02:05:06;0.30;99.90
54124;DHT22;55741;53.252;5.788;2024-01-07T02:07:32;0.30;99.90
54124;DHT22;55741;53.252;5.788;2024-01-07T02:09:59;0.30;99.90
54124;DHT22;55741;53.252;5.788;2024-01-07T02:12:25;0.30;99.90
54124;DHT22;55741;53.252;5.788;2024-01-07T02:14:51;0.30;99.90
54124;DHT22;55741;53.252;5.788;2024-01-07T02:17:19;0.30;99.90
54124;DHT22;55741;53.252;5.788;2024-01-07T02:19:45;0.20;99.90
54124;DHT22;55741;53.252;5.788;2024-01-07T02:22:11;0.30;99.90
54124;DHT22;55741;53.252;5.788;2024-01-07T02:24:36;0.30;99.90
54124;DHT22;55741;53.252;5.788;2024-01-07T02:27:02;0.30;99.90
54124;DHT22;55741;53.252;5.788;2024-01-07T02:29:48;0.30;99.90
54124;DHT22;55741;53.252;5.788;2024-01-07T02:32:14;0.30;99.90
54124;DHT22;55741;53.252;5.788;2024-01-07T02:34:40;0.40;99.90
54124;DHT22;55741;53.252;5.788;2024-01-07T02:37:06;0.20;99.90
54124;DHT22;55741;53.252;5.788;2024-01-07T02:39:32;0.40;99.90
54124;DHT22;55741;53.252;5.788;2024-01-07T02:41:58;0.30;99.90
54124;DHT22;55741;53.252;5.788;2024-01-07T02:44:24;0.10;99.90
54124;DHT22;55741;53.252;5.788;2024-01-07T02:46:52;0.30;99.90
54124;DHT22;55741;53.252;5.788;2024-01-07T02:49:17;0.20;99.90
54124;DHT22;55741;53.252;5.788;2024-01-07T02:51:43;0.20;99.90
54124;DHT22;55741;53.252;5.788;2024-01-07T02:54:11;0.30;99.90
54124;DHT22;55741;53.252;5.788;2024-01-07T02:56:37;0.20;99.90
54124;DHT22;55741;53.252;5.788;2024-01-07T02:59:03;0.20;99.90
54124;DHT22;55741;53.252;5.788;2024-01-07T03:01:29;0.20;99.90
54124;DHT22;55741;53.252;5.788;2024-01-07T03:03:55;0.20;99.90
54124;DHT22;55741;53.252;5.788;2024-01-07T03:06:21;0.20;99.90
54124;DHT22;55741;53.252;5.788;2024-01-07T03:08:47;0.20;99.90
54124;DHT22;55741;53.252;5.788;2024-01-07T03:11:15;0.10;99.90
54124;DHT22;55741;53.252;5.788;2024-01-07T03:13:40;0.10;99.90
54124;DHT22;55741;53.252;5.788;2024-01-07T03:16:06;0.10;99.90
54124;DHT22;55741;53.252;5.788;2024-01-07T03:18:32;0.10;99.90
54124;DHT22;55741;53.252;5.788;2024-01-07T03:20:58;0.10;99.90
54124;DHT22;55741;53.252;5.788;2024-01-07T03:23:24;0.20;99.90
54124;DHT22;55741;53.252;5.788;2024-01-07T03:25:49;0.10;99.90
54124;DHT22;55741;53.252;5.788;2024-01-07T03:28:15;0.20;99.90
54124;DHT22;55741;53.252;5.788;2024-01-07T03:30:41;0.20;99.90
54124;DHT22;55741;53.252;5.788;2024-01-07T03:33:07;0.20;99.90
54124;DHT22;55741;53.252;5.788;2024-01-07T03:35:33;0.30;99.90
54124;DHT22;55741;53.252;5.788;2024-01-07T03:37:59;0.20;99.90
54124;DHT22;55741;53.252;5.788;2024-01-07T03:40:44;0.30;99.90
54124;DHT22;55741;53.252;5.788;2024-01-07T03:43:11;0.30;99.90
54124;DHT22;55741;53.252;5.788;2024-01-07T03:45:37;0.30;99.90
54124;DHT22;55741;53.252;5.788;2024-01-07T03:48:04;0.20;99.90
54124;DHT22;55741;53.252;5.788;2024-01-07T03:50:30;0.30;99.90
54124;DHT22;55741;53.252;5.788;2024-01-07T03:52:56;0.40;99.90
54124;DHT22;55741;53.252;5.788;2024-01-07T03:55:22;0.30;99.90
54124;DHT22;55741;53.252;5.788;2024-01-07T03:57:48;0.30;99.90
54124;DHT22;55741;53.252;5.788;2024-01-07T04:00:14;0.30;99.90
54124;DHT22;55741;53.252;5.788;2024-01-07T04:02:39;0.40;99.90
54124;DHT22;55741;53.252;5.788;2024-01-07T04:05:05;0.40;99.90
54124;DHT22;55741;53.252;5.788;2024-01-07T04:07:32;0.40;99.90
54124;DHT22;55741;53.252;5.788;2024-01-07T04:09:58;0.40;99.90
54124;DHT22;55741;53.252;5.788;2024-01-07T04:12:23;0.40;99.90
54124;DHT22;55741;53.252;5.788;2024-01-07T04:14:49;0.40;99.90
54124;DHT22;55741;53.252;5.788;2024-01-07T04:17:15;0.40;99.90
54124;DHT22;55741;53.252;5.788;2024-01-07T04:19:41;0.40;99.90
54124;DHT22;55741;53.252;5.788;2024-01-07T04:22:26;0.40;99.90
54124;DHT22;55741;53.252;5.788;2024-01-07T04:24:52;0.40;99.90
54124;DHT22;55741;53.252;5.788;2024-01-07T04:27:18;0.30;99.90
54124;DHT22;55741;53.252;5.788;2024-01-07T04:29:44;0.50;99.90
54124;DHT22;55741;53.252;5.788;2024-01-07T04:32:10;0.40;99.90
54124;DHT22;55741;53.252;5.788;2024-01-07T04:34:36;0.50;99.90
54124;DHT22;55741;53.252;5.788;2024-01-07T04:37:01;0.40;99.90
54124;DHT22;55741;53.252;5.788;2024-01-07T04:39:27;0.40;99.90
54124;DHT22;55741;53.252;5.788;2024-01-07T04:41:53;0.40;99.90
54124;DHT22;55741;53.252;5.788;2024-01-07T04:44:19;0.40;99.90
54124;DHT22;55741;53.252;5.788;2024-01-07T04:46:47;0.40;99.90
54124;DHT22;55741;53.252;5.788;2024-01-07T04:49:15;0.40;99.90
54124;DHT22;55741;53.252;5.788;2024-01-07T04:51:41;0.40;99.90
54124;DHT22;55741;53.252;5.788;2024-01-07T04:54:06;0.40;99.90
54124;DHT22;55741;53.252;5.788;2024-01-07T04:56:33;0.50;99.90
54124;DHT22;55741;53.252;5.788;2024-01-07T04:58:59;0.40;99.90
54124;DHT22;55741;53.252;5.788;2024-01-07T05:01:24;0.40;99.90
54124;DHT22;55741;53.252;5.788;2024-01-07T05:03:50;0.40;99.90
54124;DHT22;55741;53.252;5.788;2024-01-07T05:06:16;0.40;99.90
54124;DHT22;55741;53.252;5.788;2024-01-07T05:09:02;0.40;99.90
54124;DHT22;55741;53.252;5.788;2024-01-07T05:11:48;0.40;99.90
54124;DHT22;55741;53.252;5.788;2024-01-07T05:14:14;0.40;99.90
54124;DHT22;55741;53.252;5.788;2024-01-07T05:16:59;0.40;99.90
54124;DHT22;55741;53.252;5.788;2024-01-07T05:19:25;0.50;99.90
54124;DHT22;55741;53.252;5.788;2024-01-07T05:21:51;0.40;99.90
54124;DHT22;55741;53.252;5.788;2024-01-07T05:24:17;0.40;99.90
54124;DHT22;55741;53.252;5.788;2024-01-07T05:26:44;0.50;99.90
54124;DHT22;55741;53.252;5.788;2024-01-07T05:29:10;0.40;99.90
54124;DHT22;55741;53.252;5.788;2024-01-07T05:31:38;0.40;99.90
54124;DHT22;55741;53.252;5.788;2024-01-07T05:34:04;0.50;99.90
54124;DHT22;55741;53.252;5.788;2024-01-07T05:36:30;0.40;99.90
54124;DHT22;55741;53.252;5.788;2024-01-07T05:38:56;0.60;99.90
54124;DHT22;55741;53.252;5.788;2024-01-07T05:41:22;0.50;99.90
54124;DHT22;55741;53.252;5.788;2024-01-07T05:43:47;0.40;99.90
54124;DHT22;55741;53.252;5.788;2024-01-07T05:46:13;0.50;99.90
54124;DHT22;55741;53.252;5.788;2024-01-07T05:48:43;0.50;99.90
54124;DHT22;55741;53.252;5.788;2024-01-07T05:51:11;0.50;99.90
54124;DHT22;55741;53.252;5.788;2024-01-07T05:53:37;0.50;99.90
54124;DHT22;55741;53.252;5.788;2024-01-07T05:56:03;0.50;99.90
54124;DHT22;55741;53.252;5.788;2024-01-07T05:58:49;0.50;99.90
54124;DHT22;55741;53.252;5.788;2024-01-07T06:01:19;0.50;99.90
54124;DHT22;55741;53.252;5.788;2024-01-07T06:03:46;0.40;99.90
54124;DHT22;55741;53.252;5.788;2024-01-07T06:06:13;0.50;99.90
54124;DHT22;55741;53.252;5.788;2024-01-07T06:08:43;0.50;99.90
54124;DHT22;55741;53.252;5.788;2024-01-07T06:11:09;0.50;99.90
54124;DHT22;55741;53.252;5.788;2024-01-07T06:13:37;0.50;99.90
54124;DHT22;55741;53.252;5.788;2024-01-07T06:16:03;0.50;99.90
54124;DHT22;55741;53.252;5.788;2024-01-07T06:18:30;0.50;99.90
54124;DHT22;55741;53.252;5.788;2024-01-07T06:20:56;0.50;99.90
54124;DHT22;55741;53.252;5.788;2024-01-07T06:23:41;0.50;99.90
54124;DHT22;55741;53.252;5.788;2024-01-07T06:26:07;0.50;99.90
54124;DHT22;55741;53.252;5.788;2024-01-07T06:28:53;0.50;99.90
54124;DHT22;55741;53.252;5.788;2024-01-07T06:31:19;0.50;99.90
54124;DHT22;55741;53.252;5.788;2024-01-07T06:33:44;0.50;99.90
54124;DHT22;55741;53.252;5.788;2024-01-07T06:36:30;0.50;99.90
54124;DHT22;55741;53.252;5.788;2024-01-07T06:38:56;0.60;99.90
54124;DHT22;55741;53.252;5.788;2024-01-07T06:41:22;0.60;99.90
54124;DHT22;55741;53.252;5.788;2024-01-07T06:43:48;0.50;99.90
54124;DHT22;55741;53.252;5.788;2024-01-07T06:46:15;0.60;99.90
54124;DHT22;55741;53.252;5.788;2024-01-07T06:48:41;0.50;99.90
54124;DHT22;55741;53.252;5.788;2024-01-07T06:51:07;0.50;99.90
54124;DHT22;55741;53.252;5.788;2024-01-07T06:53:34;0.50;99.90
54124;DHT22;55741;53.252;5.788;2024-01-07T06:56:00;0.50;99.90
54124;DHT22;55741;53.252;5.788;2024-01-07T06:58:26;0.50;99.90
54124;DHT22;55741;53.252;5.788;2024-01-07T07:00:52;0.60;99.90
54124;DHT22;55741;53.252;5.788;2024-01-07T07:03:18;0.50;99.90
54124;DHT22;55741;53.252;5.788;2024-01-07T07:05:44;0.40;99.90
54124;DHT22;55741;53.252;5.788;2024-01-07T07:08:09;0.50;99.90
54124;DHT22;55741;53.252;5.788;2024-01-07T07:10:35;0.50;99.90
54124;DHT22;55741;53.252;5.788;2024-01-07T07:13:21;0.50;99.90
54124;DHT22;55741;53.252;5.788;2024-01-07T07:15:47;0.50;99.90
54124;DHT22;55741;53.252;5.788;2024-01-07T07:18:13;0.50;99.90
54124;DHT22;55741;53.252;5.788;2024-01-07T07:20:59;0.40;99.90
54124;DHT22;55741;53.252;5.788;2024-01-07T07:23:44;0.40;99.90
54124;DHT22;55741;53.252;5.788;2024-01-07T07:26:10;0.30;99.90
54124;DHT22;55741;53.252;5.788;2024-01-07T07:28:36;0.40;99.90
54124;DHT22;55741;53.252;5.788;2024-01-07T07:31:02;0.40;99.90
54124;DHT22;55741;53.252;5.788;2024-01-07T07:33:28;0.40;99.90
54124;DHT22;55741;53.252;5.788;2024-01-07T07:35:54;0.40;99.90
54124;DHT22;55741;53.252;5.788;2024-01-07T07:38:20;0.40;99.90
54124;DHT22;55741;53.252;5.788;2024-01-07T07:41:05;0.30;99.90
54124;DHT22;55741;53.252;5.788;2024-01-07T07:43:31;0.30;99.90
54124;DHT22;55741;53.252;5.788;2024-01-07T07:45:57;0.30;99.90
54124;DHT22;55741;53.252;5.788;2024-01-07T07:48:23;0.30;99.90
54124;DHT22;55741;53.252;5.788;2024-01-07T07:50:49;0.20;99.90
54124;DHT22;55741;53.252;5.788;2024-01-07T07:53:15;0.20;99.90
54124;DHT22;55741;53.252;5.788;2024-01-07T07:55:42;0.20;99.90
54124;DHT22;55741;53.252;5.788;2024-01-07T07:58:08;0.20;99.90
54124;DHT22;55741;53.252;5.788;2024-01-07T08:00:34;0.10;99.90
54124;DHT22;55741;53.252;5.788;2024-01-07T08:03:00;0.10;99.90
54124;DHT22;55741;53.252;5.788;2024-01-07T08:05:26;0.10;99.90
54124;DHT22;55741;53.252;5.788;2024-01-07T08:07:52;0.00;99.90
54124;DHT22;55741;53.252;5.788;2024-01-07T08:10:18;0.00;99.90
54124;DHT22;55741;53.252;5.788;2024-01-07T08:12:44;-0.10;99.90
54124;DHT22;55741;53.252;5.788;2024-01-07T08:15:10;0.00;99.90
54124;DHT22;55741;53.252;5.788;2024-01-07T08:17:36;0.00;99.90
54124;DHT22;55741;53.252;5.788;2024-01-07T08:20:02;0.00;99.90
54124;DHT22;55741;53.252;5.788;2024-01-07T08:22:29;-0.10;99.90
54124;DHT22;55741;53.252;5.788;2024-01-07T08:25:15;-0.10;99.90
54124;DHT22;55741;53.252;5.788;2024-01-07T08:27:41;-0.10;99.90
54124;DHT22;55741;53.252;5.788;2024-01-07T08:30:07;-0.10;99.90
54124;DHT22;55741;53.252;5.788;2024-01-07T08:32:33;-0.10;99.90
54124;DHT22;55741;53.252;5.788;2024-01-07T08:35:01;0.00;99.90
54124;DHT22;55741;53.252;5.788;2024-01-07T08:37:26;0.00;99.90
54124;DHT22;55741;53.252;5.788;2024-01-07T08:40:12;0.10;99.90
54124;DHT22;55741;53.252;5.788;2024-01-07T08:42:39;0.10;99.90
54124;DHT22;55741;53.252;5.788;2024-01-07T08:45:05;0.20;99.90
54124;DHT22;55741;53.252;5.788;2024-01-07T08:47:31;0.10;99.90
54124;DHT22;55741;53.252;5.788;2024-01-07T08:49:57;0.20;99.90
54124;DHT22;55741;53.252;5.788;2024-01-07T08:52:24;0.20;99.90
54124;DHT22;55741;53.252;5.788;2024-01-07T08:54:50;0.30;99.90
54124;DHT22;55741;53.252;5.788;2024-01-07T08:57:17;0.20;99.90
54124;DHT22;55741;53.252;5.788;2024-01-07T08:59:43;0.20;99.90
54124;DHT22;55741;53.252;5.788;2024-01-07T09:02:09;0.30;99.90
54124;DHT22;55741;53.252;5.788;2024-01-07T09:04:35;0.30;99.90
54124;DHT22;55741;53.252;5.788;2024-01-07T09:07:00;0.30;99.90
54124;DHT22;55741;53.252;5.788;2024-01-07T09:09:26;0.30;99.90
54124;DHT22;55741;53.252;5.788;2024-01-07T09:11:52;0.30;99.90
54124;DHT22;55741;53.252;5.788;2024-01-07T09:14:18;0.30;99.90
54124;DHT22;55741;53.252;5.788;2024-01-07T09:16:44;0.40;99.90
54124;DHT22;55741;53.252;5.788;2024-01-07T09:19:10;0.40;99.90
54124;DHT22;55741;53.252;5.788;2024-01-07T09:21:37;0.40;99.90
54124;DHT22;55741;53.252;5.788;2024-01-07T09:24:04;0.40;99.90
54124;DHT22;55741;53.252;5.788;2024-01-07T09:26:30;0.40;99.90
54124;DHT22;55741;53.252;5.788;2024-01-07T09:28:56;0.40;99.90
54124;DHT22;55741;53.252;5.788;2024-01-07T09:31:22;0.50;99.90
54124;DHT22;55741;53.252;5.788;2024-01-07T09:33:48;0.50;99.90
54124;DHT22;55741;53.252;5.788;2024-01-07T09:36:14;0.50;99.90
54124;DHT22;55741;53.252;5.788;2024-01-07T09:38:40;0.50;99.90
54124;DHT22;55741;53.252;5.788;2024-01-07T09:41:06;0.50;99.90
54124;DHT22;55741;53.252;5.788;2024-01-07T09:43:32;0.60;99.90
54124;DHT22;55741;53.252;5.788;2024-01-07T09:45:57;0.50;99.90
54124;DHT22;55741;53.252;5.788;2024-01-07T09:48:24;0.50;99.90
54124;DHT22;55741;53.252;5.788;2024-01-07T09:50:52;0.50;99.90
54124;DHT22;55741;53.252;5.788;2024-01-07T09:53:20;0.50;99.90
54124;DHT22;55741;53.252;5.788;2024-01-07T09:56:07;0.50;99.90
54124;DHT22;55741;53.252;5.788;2024-01-07T09:58:36;0.60;99.90
54124;DHT22;55741;53.252;5.788;2024-01-07T10:01:02;0.60;99.90
54124;DHT22;55741;53.252;5.788;2024-01-07T10:03:30;0.60;99.90
54124;DHT22;55741;53.252;5.788;2024-01-07T10:05:56;0.60;99.90
54124;DHT22;55741;53.252;5.788;2024-01-07T10:08:22;1.00;99.90
54124;DHT22;55741;53.252;5.788;2024-01-07T10:10:49;0.60;99.90
54124;DHT22;55741;53.252;5.788;2024-01-07T10:13:15;0.70;99.90
54124;DHT22;55741;53.252;5.788;2024-01-07T10:15:41;0.70;99.90
54124;DHT22;55741;53.252;5.788;2024-01-07T10:18:07;0.70;99.90
54124;DHT22;55741;53.252;5.788;2024-01-07T10:20:34;0.80;99.90
54124;DHT22;55741;53.252;5.788;2024-01-07T10:23:03;0.80;99.90
54124;DHT22;55741;53.252;5.788;2024-01-07T10:25:32;0.80;99.90
54124;DHT22;55741;53.252;5.788;2024-01-07T10:28:02;0.80;99.90
54124;DHT22;55741;53.252;5.788;2024-01-07T10:30:29;0.80;99.90
54124;DHT22;55741;53.252;5.788;2024-01-07T10:32:58;0.90;99.90
54124;DHT22;55741;53.252;5.788;2024-01-07T10:35:34;0.90;99.90
54124;DHT22;55741;53.252;5.788;2024-01-07T10:38:01;0.90;99.90
54124;DHT22;55741;53.252;5.788;2024-01-07T10:40:28;1.00;99.90
54124;DHT22;55741;53.252;5.788;2024-01-07T10:42:58;1.00;99.90
54124;DHT22;55741;53.252;5.788;2024-01-07T10:45:24;1.00;99.90
54124;DHT22;55741;53.252;5.788;2024-01-07T10:47:52;1.00;99.90
54124;DHT22;55741;53.252;5.788;2024-01-07T10:50:21;1.10;99.90
54124;DHT22;55741;53.252;5.788;2024-01-07T10:52:50;1.10;99.90
54124;DHT22;55741;53.252;5.788;2024-01-07T10:55:22;1.00;99.90
54124;DHT22;55741;53.252;5.788;2024-01-07T10:57:53;1.00;99.90
54124;DHT22;55741;53.252;5.788;2024-01-07T11:00:23;1.00;99.90
54124;DHT22;55741;53.252;5.788;2024-01-07T11:03:00;1.00;99.90
54124;DHT22;55741;53.252;5.788;2024-01-07T11:05:47;1.00;99.90
54124;DHT22;55741;53.252;5.788;2024-01-07T11:08:41;0.90;99.90
54124;DHT22;55741;53.252;5.788;2024-01-07T11:11:16;0.90;99.90
54124;DHT22;55741;53.252;5.788;2024-01-07T11:14:03;1.00;99.90
54124;DHT22;55741;53.252;5.788;2024-01-07T11:16:42;1.10;99.90
54124;DHT22;55741;53.252;5.788;2024-01-07T11:19:08;1.20;99.90
54124;DHT22;55741;53.252;5.788;2024-01-07T11:21:34;1.30;99.90
54124;DHT22;55741;53.252;5.788;2024-01-07T11:23:59;1.50;99.90
54124;DHT22;55741;53.252;5.788;2024-01-07T11:26:28;1.50;99.90
54124;DHT22;55741;53.252;5.788;2024-01-07T11:28:56;1.60;99.90
54124;DHT22;55741;53.252;5.788;2024-01-07T11:31:43;1.80;99.90
54124;DHT22;55741;53.252;5.788;2024-01-07T11:34:09;1.80;99.90
54124;DHT22;55741;53.252;5.788;2024-01-07T11:36:55;1.90;99.90
54124;DHT22;55741;53.252;5.788;2024-01-07T11:39:21;2.00;99.90
54124;DHT22;55741;53.252;5.788;2024-01-07T11:41:47;2.00;99.90
54124;DHT22;55741;53.252;5.788;2024-01-07T11:44:13;2.10;99.90
54124;DHT22;55741;53.252;5.788;2024-01-07T11:46:40;2.10;99.90
54124;DHT22;55741;53.252;5.788;2024-01-07T11:49:08;2.20;99.90
54124;DHT22;55741;53.252;5.788;2024-01-07T11:51:35;2.20;99.90
54124;DHT22;55741;53.252;5.788;2024-01-07T11:54:03;2.20;99.90
54124;DHT22;55741;53.252;5.788;2024-01-07T11:56:49;2.20;99.90
54124;DHT22;55741;53.252;5.788;2024-01-07T11:59:15;2.10;99.90
54124;DHT22;55741;53.252;5.788;2024-01-07T12:01:42;2.10;99.90
54124;DHT22;55741;53.252;5.788;2024-01-07T12:04:08;1.90;99.90
54124;DHT22;55741;53.252;5.788;2024-01-07T12:06:35;2.00;99.90
54124;DHT22;55741;53.252;5.788;2024-01-07T12:09:01;2.10;99.90
54124;DHT22;55741;53.252;5.788;2024-01-07T12:11:29;2.10;99.90
54124;DHT22;55741;53.252;5.788;2024-01-07T12:13:55;2.20;99.90
54124;DHT22;55741;53.252;5.788;2024-01-07T12:16:21;2.30;99.90
54124;DHT22;55741;53.252;5.788;2024-01-07T12:18:47;2.30;99.90
54124;DHT22;55741;53.252;5.788;2024-01-07T12:21:19;2.40;99.90
54124;DHT22;55741;53.252;5.788;2024-01-07T12:23:48;2.40;99.90
54124;DHT22;55741;53.252;5.788;2024-01-07T12:26:15;2.40;99.90
54124;DHT22;55741;53.252;5.788;2024-01-07T12:28:41;2.50;99.90
54124;DHT22;55741;53.252;5.788;2024-01-07T12:31:07;2.40;99.90
54124;DHT22;55741;53.252;5.788;2024-01-07T12:33:33;2.40;99.90
54124;DHT22;55741;53.252;5.788;2024-01-07T12:36:00;2.30;99.90
54124;DHT22;55741;53.252;5.788;2024-01-07T12:38:27;2.30;99.90
54124;DHT22;55741;53.252;5.788;2024-01-07T12:40:53;2.20;99.90
54124;DHT22;55741;53.252;5.788;2024-01-07T12:43:19;2.10;99.90
54124;DHT22;55741;53.252;5.788;2024-01-07T12:45:47;2.20;99.90
54124;DHT22;55741;53.252;5.788;2024-01-07T12:48:13;2.20;99.90
54124;DHT22;55741;53.252;5.788;2024-01-07T12:50:39;2.20;99.90
54124;DHT22;55741;53.252;5.788;2024-01-07T12:53:04;2.10;99.90
54124;DHT22;55741;53.252;5.788;2024-01-07T12:55:31;2.20;99.90
54124;DHT22;55741;53.252;5.788;2024-01-07T12:57:57;2.10;99.90
54124;DHT22;55741;53.252;5.788;2024-01-07T13:00:27;2.10;99.90
54124;DHT22;55741;53.252;5.788;2024-01-07T13:02:55;2.10;99.90
54124;DHT22;55741;53.252;5.788;2024-01-07T13:05:21;2.10;99.90
54124;DHT22;55741;53.252;5.788;2024-01-07T13:07:47;2.00;99.90
54124;DHT22;55741;53.252;5.788;2024-01-07T13:10:33;2.10;99.90
54124;DHT22;55741;53.252;5.788;2024-01-07T13:12:59;2.10;99.90
54124;DHT22;55741;53.252;5.788;2024-01-07T13:15:25;2.00;99.90
54124;DHT22;55741;53.252;5.788;2024-01-07T13:17:51;2.00;99.90
54124;DHT22;55741;53.252;5.788;2024-01-07T13:20:16;2.00;99.90
54124;DHT22;55741;53.252;5.788;2024-01-07T13:22:46;1.90;99.90
54124;DHT22;55741;53.252;5.788;2024-01-07T13:25:14;1.90;99.90
54124;DHT22;55741;53.252;5.788;2024-01-07T13:27:40;1.90;99.90
54124;DHT22;55741;53.252;5.788;2024-01-07T13:30:08;2.00;99.90
54124;DHT22;55741;53.252;5.788;2024-01-07T13:32:35;1.90;99.90
54124;DHT22;55741;53.252;5.788;2024-01-07T13:35:03;1.90;99.90
54124;DHT22;55741;53.252;5.788;2024-01-07T13:37:29;1.90;99.90
54124;DHT22;55741;53.252;5.788;2024-01-07T13:39:56;1.90;99.90
54124;DHT22;55741;53.252;5.788;2024-01-07T13:42:22;1.90;99.90
54124;DHT22;55741;53.252;5.788;2024-01-07T13:44:48;1.90;99.90
54124;DHT22;55741;53.252;5.788;2024-01-07T13:47:19;1.90;99.90
54124;DHT22;55741;53.252;5.788;2024-01-07T13:49:45;1.90;99.90
54124;DHT22;55741;53.252;5.788;2024-01-07T13:52:12;1.90;99.90
54124;DHT22;55741;53.252;5.788;2024-01-07T13:54:38;1.90;99.90
54124;DHT22;55741;53.252;5.788;2024-01-07T13:57:04;1.80;99.90
54124;DHT22;55741;53.252;5.788;2024-01-07T13:59:30;1.80;99.90
54124;DHT22;55741;53.252;5.788;2024-01-07T14:01:56;1.80;99.90
54124;DHT22;55741;53.252;5.788;2024-01-07T14:04:25;1.80;99.90
54124;DHT22;55741;53.252;5.788;2024-01-07T14:06:55;1.80;99.90
54124;DHT22;55741;53.252;5.788;2024-01-07T14:09:22;1.70;99.90
54124;DHT22;55741;53.252;5.788;2024-01-07T14:11:48;1.70;99.90
54124;DHT22;55741;53.252;5.788;2024-01-07T14:14:14;1.70;99.90
54124;DHT22;55741;53.252;5.788;2024-01-07T14:16:39;1.70;99.90
54124;DHT22;55741;53.252;5.788;2024-01-07T14:19:06;1.60;99.90
54124;DHT22;55741;53.252;5.788;2024-01-07T14:21:32;1.60;99.90
54124;DHT22;55741;53.252;5.788;2024-01-07T14:23:58;1.60;99.90
54124;DHT22;55741;53.252;5.788;2024-01-07T14:26:23;1.50;99.90
54124;DHT22;55741;53.252;5.788;2024-01-07T14:28:50;1.50;99.90
54124;DHT22;55741;53.252;5.788;2024-01-07T14:31:17;1.50;99.90
54124;DHT22;55741;53.252;5.788;2024-01-07T14:33:43;1.50;99.90
54124;DHT22;55741;53.252;5.788;2024-01-07T14:36:09;1.40;99.90
54124;DHT22;55741;53.252;5.788;2024-01-07T14:38:46;1.40;99.90
54124;DHT22;55741;53.252;5.788;2024-01-07T14:41:16;1.40;99.90
54124;DHT22;55741;53.252;5.788;2024-01-07T14:43:42;1.40;99.90
54124;DHT22;55741;53.252;5.788;2024-01-07T14:46:08;1.30;99.90
54124;DHT22;55741;53.252;5.788;2024-01-07T14:48:34;1.30;99.90
54124;DHT22;55741;53.252;5.788;2024-01-07T14:51:01;1.30;99.90
54124;DHT22;55741;53.252;5.788;2024-01-07T14:53:27;1.20;99.90
54124;DHT22;55741;53.252;5.788;2024-01-07T14:55:54;1.20;99.90
54124;DHT22;55741;53.252;5.788;2024-01-07T14:58:20;1.20;99.90
54124;DHT22;55741;53.252;5.788;2024-01-07T15:00:50;1.10;99.90
54124;DHT22;55741;53.252;5.788;2024-01-07T15:03:16;1.10;99.90
54124;DHT22;55741;53.252;5.788;2024-01-07T15:05:44;1.10;99.90
54124;DHT22;55741;53.252;5.788;2024-01-07T15:08:10;1.10;99.90
54124;DHT22;55741;53.252;5.788;2024-01-07T15:10:38;1.00;99.90
54124;DHT22;55741;53.252;5.788;2024-01-07T15:13:04;0.90;99.90
54124;DHT22;55741;53.252;5.788;2024-01-07T15:15:30;0.80;99.90
54124;DHT22;55741;53.252;5.788;2024-01-07T15:17:57;0.90;99.90
54124;DHT22;55741;53.252;5.788;2024-01-07T15:20:23;0.80;99.90
54124;DHT22;55741;53.252;5.788;2024-01-07T15:22:48;0.90;99.90
54124;DHT22;55741;53.252;5.788;2024-01-07T15:25:15;0.80;99.90
54124;DHT22;55741;53.252;5.788;2024-01-07T15:27:41;0.70;99.90
54124;DHT22;55741;53.252;5.788;2024-01-07T15:30:07;0.70;99.90
54124;DHT22;55741;53.252;5.788;2024-01-07T15:32:33;0.60;99.90
54124;DHT22;55741;53.252;5.788;2024-01-07T15:34:59;0.70;99.90
54124;DHT22;55741;53.252;5.788;2024-01-07T15:37:25;0.60;99.90
54124;DHT22;55741;53.252;5.788;2024-01-07T15:39:51;0.50;99.90
54124;DHT22;55741;53.252;5.788;2024-01-07T15:42:18;0.50;99.90
54124;DHT22;55741;53.252;5.788;2024-01-07T15:44:44;0.50;99.90
54124;DHT22;55741;53.252;5.788;2024-01-07T15:47:10;0.40;99.90
54124;DHT22;55741;53.252;5.788;2024-01-07T15:49:36;0.40;99.90